Time;durP1;ratioP1;P1;durP2;ratioP2;P2;SDS_P1;SDS_P2;PMS_P1;PMS_P2;Temp;Humidity;BMP_temperature;BMP_pressure;BME280_temperature;BME280_humidity;BME280_pressure;Samples;Min_cycle;Max_cycle;Signal;HPM_P1;HPM_P2
2023/06/20 00:00:51;;;;;;;7.43;6.72;;;;;;;;;;5071130;28;20383;-83
2023/06/20 00:03:17;;;;;;;6.97;6.40;;;;;;;;;;5071090;28;20403;-83
2023/06/20 00:05:44;;;;;;;7.43;6.70;;;;;;;;;;5070894;28;20426;-82
2023/06/20 00:08:10;;;;;;;6.97;6.05;;;;;;;;;;5070997;28;20383;-82
2023/06/20 00:10:36;;;;;;;6.50;6.00;;;;;;;;;;5070943;28;20414;-82
2023/06/20 00:13:02;;;;;;;6.55;5.95;;;;;;;;;;5075825;28;20382;-82
2023/06/20 00:15:28;;;;;;;6.75;6.05;;;;;;;;;;5078934;28;20406;-82
2023/06/20 00:18:01;;;;;;;6.72;6.03;;;;;;;;;;5075657;28;20371;-81
2023/06/20 00:20:27;;;;;;;6.22;5.63;;;;;;;;;;5079677;28;20876;-81
2023/06/20 00:22:54;;;;;;;6.10;5.60;;;;;;;;;;5079330;28;20387;-82
2023/06/20 00:25:20;;;;;;;6.05;5.45;;;;;;;;;;5066207;28;20447;-82
2023/06/20 00:27:46;;;;;;;6.35;5.70;;;;;;;;;;5090997;28;20389;-81
2023/06/20 00:30:12;;;;;;;6.75;5.57;;;;;;;;;;5090999;28;20402;-82
2023/06/20 00:32:38;;;;;;;5.83;5.23;;;;;;;;;;5090928;28;20377;-82
2023/06/20 00:35:04;;;;;;;5.32;4.93;;;;;;;;;;5090885;28;20514;-82
2023/06/20 00:37:30;;;;;;;4.60;4.20;;;;;;;;;;5090961;28;20374;-83
2023/06/20 00:39:56;;;;;;;6.00;4.40;;;;;;;;;;5090968;28;20380;-82
2023/06/20 00:42:23;;;;;;;5.13;4.07;;;;;;;;;;5090847;28;20385;-83
2023/06/20 00:44:50;;;;;;;5.97;3.70;;;;;;;;;;5080528;28;20437;-82
2023/06/20 00:47:17;;;;;;;4.68;3.22;;;;;;;;;;5070625;28;20761;-82
2023/06/20 00:49:45;;;;;;;3.42;2.90;;;;;;;;;;5070751;28;20802;-83
2023/06/20 00:52:11;;;;;;;3.10;2.90;;;;;;;;;;5070565;28;20422;-83
2023/06/20 00:54:37;;;;;;;4.38;3.00;;;;;;;;;;5070566;28;20376;-82
2023/06/20 00:57:04;;;;;;;3.77;3.10;;;;;;;;;;5070576;28;20434;-82
2023/06/20 00:59:30;;;;;;;3.33;3.03;;;;;;;;;;5074035;28;20426;-82
2023/06/20 01:01:56;;;;;;;5.30;3.70;;;;;;;;;;5074070;28;20384;-82
2023/06/20 01:04:22;;;;;;;4.40;3.90;;;;;;;;;;5073994;28;20787;-82
2023/06/20 01:06:49;;;;;;;3.90;3.58;;;;;;;;;;5073988;28;20459;-82
2023/06/20 01:09:24;;;;;;;4.20;3.30;;;;;;;;;;5068765;28;20374;-82
2023/06/20 01:11:57;;;;;;;4.33;3.67;;;;;;;;;;5053858;28;20581;-81
2023/06/20 01:14:23;;;;;;;5.38;3.72;;;;;;;;;;5053832;28;20378;-82
2023/06/20 01:16:49;;;;;;;4.75;3.38;;;;;;;;;;5053883;28;20407;-82
2023/06/20 01:19:18;;;;;;;6.70;4.55;;;;;;;;;;5070654;28;20410;-82
2023/06/20 01:21:47;;;;;;;5.30;4.80;;;;;;;;;;5088399;28;20388;-82
2023/06/20 01:24:13;;;;;;;4.15;3.85;;;;;;;;;;5079556;28;20377;-83
2023/06/20 01:27:01;;;;;;;4.13;3.80;;;;;;;;;;5078832;28;20478;-83
2023/06/20 01:29:43;;;;;;;4.32;3.90;;;;;;;;;;5081581;28;20379;-82
2023/06/20 01:32:13;;;;;;;4.82;4.05;;;;;;;;;;5073378;28;20399;-82
2023/06/20 01:34:45;;;;;;;4.97;3.90;;;;;;;;;;5073550;28;20386;-82
2023/06/20 01:37:15;;;;;;;3.92;3.50;;;;;;;;;;5073768;28;20372;-82
2023/06/20 01:39:44;;;;;;;4.32;3.55;;;;;;;;;;5073365;28;20372;-83
2023/06/20 01:42:11;;;;;;;4.70;4.07;;;;;;;;;;5073268;28;20380;-82
2023/06/20 01:44:38;;;;;;;4.30;3.90;;;;;;;;;;5073402;28;20406;-82
2023/06/20 01:47:06;;;;;;;3.83;3.38;;;;;;;;;;5073256;28;20744;-82
2023/06/20 01:49:33;;;;;;;5.00;4.50;;;;;;;;;;5073015;28;20387;-82
2023/06/20 01:51:59;;;;;;;5.88;4.00;;;;;;;;;;5073092;28;20403;-82
2023/06/20 01:54:28;;;;;;;4.10;3.80;;;;;;;;;;5073199;28;20380;-82
2023/06/20 01:56:57;;;;;;;4.50;3.83;;;;;;;;;;5069616;28;20414;-83
2023/06/20 01:59:23;;;;;;;4.27;3.87;;;;;;;;;;5073032;28;20433;-82
2023/06/20 02:01:50;;;;;;;5.68;4.22;;;;;;;;;;5072918;28;20781;-82
2023/06/20 02:04:17;;;;;;;3.92;3.60;;;;;;;;;;5072965;28;20415;-83
2023/06/20 02:06:43;;;;;;;4.85;4.45;;;;;;;;;;5072872;28;20414;-82
2023/06/20 02:09:10;;;;;;;4.70;4.30;;;;;;;;;;5072738;28;20394;-82
2023/06/20 02:11:36;;;;;;;7.95;6.22;;;;;;;;;;5072646;28;20399;-82
2023/06/20 02:14:03;;;;;;;6.25;5.75;;;;;;;;;;5072854;28;20375;-82
2023/06/20 02:16:29;;;;;;;6.72;6.13;;;;;;;;;;5072612;28;20387;-82
2023/06/20 02:18:55;;;;;;;6.50;5.90;;;;;;;;;;5072631;28;20375;-82
2023/06/20 02:21:23;;;;;;;6.07;5.57;;;;;;;;;;5072288;28;20846;-82
2023/06/20 02:23:50;;;;;;;6.10;5.57;;;;;;;;;;5072623;28;20379;-82
2023/06/20 02:26:17;;;;;;;5.40;5.00;;;;;;;;;;5072414;28;20952;-82
2023/06/20 02:28:48;;;;;;;5.30;4.68;;;;;;;;;;5077868;28;20774;-82
2023/06/20 02:31:15;;;;;;;5.20;4.80;;;;;;;;;;5082423;28;20434;-82
2023/06/20 02:33:42;;;;;;;5.47;5.07;;;;;;;;;;5066763;28;20465;-82
2023/06/20 02:36:09;;;;;;;4.53;4.22;;;;;;;;;;5079004;28;20375;-82
2023/06/20 02:38:35;;;;;;;4.80;4.38;;;;;;;;;;5088991;28;20415;-82
2023/06/20 02:41:01;;;;;;;4.72;4.35;;;;;;;;;;5092420;28;20381;-82
2023/06/20 02:43:28;;;;;;;5.20;4.80;;;;;;;;;;5092566;28;20385;-82
2023/06/20 02:46:14;;;;;;;4.93;4.55;;;;;;;;;;5092393;28;20375;-82
2023/06/20 02:48:44;;;;;;;5.03;4.72;;;;;;;;;;5071310;28;20957;-82
2023/06/20 02:51:17;;;;;;;5.85;5.38;;;;;;;;;;5071832;28;20506;-82
2023/06/20 02:53:56;;;;;;;7.30;6.70;;;;;;;;;;5071912;28;20384;-82
2023/06/20 02:56:24;;;;;;;7.40;6.90;;;;;;;;;;5072038;28;20368;-82
2023/06/20 02:58:52;;;;;;;8.10;6.93;;;;;;;;;;5071733;28;20384;-82
2023/06/20 03:01:23;;;;;;;6.13;5.72;;;;;;;;;;5068494;28;20777;-83
2023/06/20 03:03:51;;;;;;;6.10;5.70;;;;;;;;;;5071720;28;20384;-82
2023/06/20 03:06:17;;;;;;;7.53;6.93;;;;;;;;;;5071837;28;20384;-82
2023/06/20 03:08:44;;;;;;;6.72;6.13;;;;;;;;;;5071602;28;20380;-82
2023/06/20 03:11:10;;;;;;;6.10;5.60;;;;;;;;;;5071692;28;20761;-82
2023/06/20 03:13:36;;;;;;;5.20;4.80;;;;;;;;;;5071602;28;20753;-82
2023/06/20 03:16:04;;;;;;;6.78;6.28;;;;;;;;;;5071651;28;20920;-82
2023/06/20 03:18:30;;;;;;;5.88;5.38;;;;;;;;;;5071059;28;20387;-82
2023/06/20 03:20:57;;;;;;;6.00;5.60;;;;;;;;;;5071172;28;20474;-82
2023/06/20 03:23:23;;;;;;;6.10;5.65;;;;;;;;;;5071485;28;20706;-82
2023/06/20 03:25:49;;;;;;;6.28;5.57;;;;;;;;;;5071520;28;20384;-82
2023/06/20 03:28:15;;;;;;;6.43;5.93;;;;;;;;;;5071317;28;20509;-82
2023/06/20 03:30:41;;;;;;;5.97;5.47;;;;;;;;;;5071399;28;20404;-82
2023/06/20 03:33:07;;;;;;;6.05;5.57;;;;;;;;;;5089415;28;20382;-82
2023/06/20 03:35:33;;;;;;;5.85;5.45;;;;;;;;;;5075976;28;20459;-83
2023/06/20 03:37:59;;;;;;;6.72;6.22;;;;;;;;;;5065802;28;20883;-82
2023/06/20 03:40:25;;;;;;;5.88;5.43;;;;;;;;;;5080429;28;20390;-82
2023/06/20 03:42:51;;;;;;;5.80;5.40;;;;;;;;;;5087595;28;20505;-82
2023/06/20 03:45:17;;;;;;;6.03;5.55;;;;;;;;;;5071310;28;20383;-82
2023/06/20 03:47:43;;;;;;;6.47;5.97;;;;;;;;;;5071149;28;20406;-82
2023/06/20 03:50:09;;;;;;;5.80;5.40;;;;;;;;;;5070950;28;20416;-82
2023/06/20 03:52:35;;;;;;;5.72;5.32;;;;;;;;;;5071120;28;20426;-83
2023/06/20 03:55:01;;;;;;;5.95;5.55;;;;;;;;;;5067766;28;20383;-82
2023/06/20 03:57:27;;;;;;;5.83;5.30;;;;;;;;;;5070985;28;20399;-82
2023/06/20 03:59:53;;;;;;;5.30;4.90;;;;;;;;;;5071163;28;20466;-82
2023/06/20 04:02:19;;;;;;;5.75;5.35;;;;;;;;;;5071054;28;20718;-82
2023/06/20 04:04:49;;;;;;;6.53;6.03;;;;;;;;;;5071137;28;20384;-83
2023/06/20 04:07:18;;;;;;;6.53;6.07;;;;;;;;;;5070883;28;20383;-82
2023/06/20 04:09:44;;;;;;;7.28;6.70;;;;;;;;;;5071197;28;20742;-82
2023/06/20 04:12:10;;;;;;;8.18;7.57;;;;;;;;;;5070854;28;20395;-82
2023/06/20 04:14:36;;;;;;;6.68;6.18;;;;;;;;;;5070955;28;20879;-82
2023/06/20 04:17:02;;;;;;;9.27;8.48;;;;;;;;;;5070782;28;20372;-82
2023/06/20 04:19:28;;;;;;;9.30;8.53;;;;;;;;;;5070669;28;20442;-82
2023/06/20 04:21:54;;;;;;;8.57;7.95;;;;;;;;;;5070818;28;20857;-82
2023/06/20 04:24:20;;;;;;;7.90;7.38;;;;;;;;;;5070880;28;20392;-82
2023/06/20 04:26:46;;;;;;;7.57;7.07;;;;;;;;;;5070634;28;20376;-82
2023/06/20 04:29:12;;;;;;;6.95;6.38;;;;;;;;;;5052898;28;20916;-83
2023/06/20 04:31:38;;;;;;;6.97;6.47;;;;;;;;;;5053261;28;20504;-82
2023/06/20 04:34:04;;;;;;;7.32;6.72;;;;;;;;;;5075343;28;20753;-82
2023/06/20 04:36:33;;;;;;;6.60;6.10;;;;;;;;;;5084930;28;20380;-82
2023/06/20 04:39:00;;;;;;;6.72;6.22;;;;;;;;;;5087439;28;20374;-82
2023/06/20 04:41:26;;;;;;;6.80;6.30;;;;;;;;;;5062310;28;20763;-82
2023/06/20 04:43:52;;;;;;;6.30;5.88;;;;;;;;;;5082748;28;20386;-82
2023/06/20 04:46:18;;;;;;;6.40;5.90;;;;;;;;;;5094688;28;20485;-82
2023/06/20 04:48:45;;;;;;;6.70;6.20;;;;;;;;;;5094625;28;20386;-82
2023/06/20 04:51:12;;;;;;;6.67;6.17;;;;;;;;;;5094323;28;20441;-82
2023/06/20 04:53:38;;;;;;;6.32;5.93;;;;;;;;;;5094561;28;20374;-82
2023/06/20 04:56:04;;;;;;;6.65;6.15;;;;;;;;;;5089579;28;20398;-82
2023/06/20 04:58:30;;;;;;;6.90;6.40;;;;;;;;;;5074188;28;20387;-82
2023/06/20 05:00:57;;;;;;;6.10;5.50;;;;;;;;;;5074029;28;20372;-82
2023/06/20 05:03:23;;;;;;;6.13;5.70;;;;;;;;;;5074053;28;20462;-82
2023/06/20 05:05:49;;;;;;;6.25;5.68;;;;;;;;;;5068946;28;20401;-82
2023/06/20 05:08:15;;;;;;;6.40;5.90;;;;;;;;;;5074006;28;20853;-82
2023/06/20 05:10:41;;;;;;;5.97;5.50;;;;;;;;;;5073867;28;20410;-82
2023/06/20 05:13:07;;;;;;;6.53;5.93;;;;;;;;;;5073884;28;20733;-82
2023/06/20 05:15:33;;;;;;;6.55;6.05;;;;;;;;;;5073952;28;20461;-82
2023/06/20 05:17:59;;;;;;;6.53;6.03;;;;;;;;;;5073719;28;20805;-82
2023/06/20 05:20:25;;;;;;;7.35;6.75;;;;;;;;;;5073873;28;20384;-82
2023/06/20 05:22:51;;;;;;;6.10;5.60;;;;;;;;;;5055708;28;20398;-82
2023/06/20 05:25:17;;;;;;;6.60;6.10;;;;;;;;;;5055460;28;20889;-82
2023/06/20 05:27:43;;;;;;;6.05;5.55;;;;;;;;;;5073461;28;20384;-82
2023/06/20 05:30:09;;;;;;;6.38;5.93;;;;;;;;;;5073564;28;20457;-82
2023/06/20 05:32:35;;;;;;;6.07;5.68;;;;;;;;;;5074568;28;20382;-82
2023/06/20 05:35:01;;;;;;;6.43;5.88;;;;;;;;;;5093392;28;20469;-82
2023/06/20 05:37:28;;;;;;;6.03;5.63;;;;;;;;;;5076787;28;20380;-82
2023/06/20 05:39:55;;;;;;;6.28;5.88;;;;;;;;;;5089499;28;20383;-82
2023/06/20 05:42:21;;;;;;;5.88;5.47;;;;;;;;;;5082895;28;20373;-82
2023/06/20 05:44:47;;;;;;;5.60;5.20;;;;;;;;;;5061633;28;20761;-83
2023/06/20 05:47:17;;;;;;;5.93;5.53;;;;;;;;;;5073091;28;20383;-83
2023/06/20 05:49:43;;;;;;;6.40;5.90;;;;;;;;;;5073112;28;20419;-82
2023/06/20 05:52:09;;;;;;;6.13;5.72;;;;;;;;;;5070607;28;20758;-82
2023/06/20 05:54:36;;;;;;;6.22;5.82;;;;;;;;;;5072401;28;20380;-82
2023/06/20 05:57:05;;;;;;;6.13;5.73;;;;;;;;;;5072992;28;20370;-83
2023/06/20 05:59:31;;;;;;;6.63;6.20;;;;;;;;;;5072988;28;20379;-82
2023/06/20 06:01:57;;;;;;;6.90;6.40;;;;;;;;;;5072946;28;20394;-82
2023/06/20 06:04:23;;;;;;;6.65;6.10;;;;;;;;;;5073016;28;20910;-82
2023/06/20 06:06:49;;;;;;;7.03;6.50;;;;;;;;;;5072792;28;20403;-82
2023/06/20 06:09:15;;;;;;;6.97;6.47;;;;;;;;;;5072916;28;20932;-82
2023/06/20 06:11:41;;;;;;;6.93;6.43;;;;;;;;;;5072731;28;20442;-82
2023/06/20 06:14:07;;;;;;;7.20;6.63;;;;;;;;;;5072783;28;20384;-82
2023/06/20 06:16:33;;;;;;;6.78;6.38;;;;;;;;;;5072621;28;20415;-82
2023/06/20 06:19:00;;;;;;;6.68;6.28;;;;;;;;;;5072289;28;20380;-82
2023/06/20 06:21:26;;;;;;;6.80;6.30;;;;;;;;;;5072588;28;20390;-82
2023/06/20 06:23:53;;;;;;;7.00;6.50;;;;;;;;;;5072689;28;20794;-81
2023/06/20 06:26:19;;;;;;;6.90;6.35;;;;;;;;;;5072456;28;20391;-82
2023/06/20 06:28:45;;;;;;;6.68;6.18;;;;;;;;;;5072517;28;20860;-82
2023/06/20 06:31:13;;;;;;;6.85;6.35;;;;;;;;;;5072282;28;20415;-82
2023/06/20 06:33:40;;;;;;;6.93;6.43;;;;;;;;;;5072302;28;20444;-82
2023/06/20 06:36:08;;;;;;;7.03;6.43;;;;;;;;;;5076992;28;20381;-81
2023/06/20 06:38:34;;;;;;;6.85;6.35;;;;;;;;;;5087521;28;20374;-82
2023/06/20 06:41:00;;;;;;;6.68;6.18;;;;;;;;;;5084970;28;20383;-82
2023/06/20 06:43:26;;;;;;;6.50;6.07;;;;;;;;;;5079535;28;20386;-82
2023/06/20 06:45:52;;;;;;;7.10;6.50;;;;;;;;;;5066653;28;20903;-82
2023/06/20 06:48:18;;;;;;;6.72;6.22;;;;;;;;;;5090092;28;20877;-81
2023/06/20 06:50:44;;;;;;;6.63;6.22;;;;;;;;;;5092033;28;20406;-82
2023/06/20 06:53:13;;;;;;;6.40;5.90;;;;;;;;;;5092179;28;20851;-81
2023/06/20 06:55:44;;;;;;;6.75;6.22;;;;;;;;;;5073424;28;20485;-82
2023/06/20 06:58:10;;;;;;;7.10;6.60;;;;;;;;;;5073829;28;20889;-82
2023/06/20 07:00:36;;;;;;;7.80;7.20;;;;;;;;;;5092243;28;20389;-82
2023/06/20 07:03:03;;;;;;;7.15;6.65;;;;;;;;;;5070768;28;20456;-82
2023/06/20 07:05:29;;;;;;;8.05;7.50;;;;;;;;;;5071812;28;20383;-82
2023/06/20 07:07:55;;;;;;;9.10;8.35;;;;;;;;;;5071585;28;20388;-82
2023/06/20 07:10:21;;;;;;;7.93;7.37;;;;;;;;;;5071630;28;20445;-82
2023/06/20 07:12:46;;;;;;;7.80;7.30;;;;;;;;;;5071543;28;20376;-82
2023/06/20 07:15:12;;;;;;;7.70;7.10;;;;;;;;;;5071679;28;20467;-82
2023/06/20 07:17:38;;;;;;;7.72;7.22;;;;;;;;;;5071523;28;20421;-82
2023/06/20 07:20:08;;;;;;;7.60;7.00;;;;;;;;;;5071589;28;20416;-82
2023/06/20 07:22:34;;;;;;;7.55;6.90;;;;;;;;;;5071398;28;20379;-82
2023/06/20 07:25:00;;;;;;;7.65;7.00;;;;;;;;;;5070830;28;20733;-82
2023/06/20 07:27:25;;;;;;;7.78;7.20;;;;;;;;;;5071302;28;20417;-82
2023/06/20 07:29:51;;;;;;;7.57;6.97;;;;;;;;;;5071463;28;20387;-82
2023/06/20 07:32:18;;;;;;;7.43;6.82;;;;;;;;;;5071240;28;20453;-82
2023/06/20 07:34:44;;;;;;;7.65;7.05;;;;;;;;;;5053670;28;20406;-82
2023/06/20 07:37:10;;;;;;;8.23;7.63;;;;;;;;;;5071216;28;20841;-82
2023/06/20 07:39:40;;;;;;;7.13;6.63;;;;;;;;;;5072083;28;20927;-82
2023/06/20 07:42:06;;;;;;;7.30;6.80;;;;;;;;;;5083846;28;20394;-82
2023/06/20 07:44:32;;;;;;;6.78;6.32;;;;;;;;;;5076551;28;20478;-82
2023/06/20 07:46:58;;;;;;;6.22;5.82;;;;;;;;;;5082063;28;20374;-83
2023/06/20 07:49:24;;;;;;;7.00;6.50;;;;;;;;;;5079715;28;20749;-83
2023/06/20 07:51:50;;;;;;;6.55;6.00;;;;;;;;;;5073451;28;20458;-83
2023/06/20 07:54:16;;;;;;;6.03;5.63;;;;;;;;;;5071173;28;20422;-83
2023/06/20 07:56:42;;;;;;;6.07;5.67;;;;;;;;;;5071127;28;20395;-83
2023/06/20 07:59:08;;;;;;;6.30;5.80;;;;;;;;;;5071257;28;20386;-83
2023/06/20 08:01:34;;;;;;;6.20;5.80;;;;;;;;;;5071031;28;20892;-83
2023/06/20 08:04:00;;;;;;;6.22;5.72;;;;;;;;;;5071178;28;20392;-83
2023/06/20 08:06:26;;;;;;;6.78;6.28;;;;;;;;;;5071330;28;20387;-83
2023/06/20 08:08:52;;;;;;;6.75;6.35;;;;;;;;;;5075176;28;20450;-83
2023/06/20 08:11:22;;;;;;;6.85;6.35;;;;;;;;;;5075018;28;20868;-84
2023/06/20 08:13:48;;;;;;;5.87;5.47;;;;;;;;;;5074762;28;20415;-83
2023/06/20 08:16:14;;;;;;;6.73;6.23;;;;;;;;;;5075147;28;20476;-84
2023/06/20 08:18:40;;;;;;;5.80;5.40;;;;;;;;;;5074819;28;20752;-84
2023/06/20 08:21:05;;;;;;;7.20;6.15;;;;;;;;;;5057038;28;20376;-84
2023/06/20 08:23:31;;;;;;;5.63;5.22;;;;;;;;;;5075016;28;20427;-84
2023/06/20 08:25:58;;;;;;;5.93;5.43;;;;;;;;;;5074875;28;20380;-84
2023/06/20 08:28:24;;;;;;;5.88;5.45;;;;;;;;;;5074682;28;20872;-84
2023/06/20 08:30:50;;;;;;;5.85;5.45;;;;;;;;;;5074793;28;20433;-84
2023/06/20 08:33:16;;;;;;;7.00;6.40;;;;;;;;;;5074790;28;20375;-84
2023/06/20 08:35:42;;;;;;;6.33;5.73;;;;;;;;;;5074664;28;20441;-84
2023/06/20 08:38:09;;;;;;;5.63;5.22;;;;;;;;;;5074501;28;20384;-84
2023/06/20 08:40:35;;;;;;;5.30;4.90;;;;;;;;;;5074687;28;20819;-84
2023/06/20 08:43:02;;;;;;;5.15;4.70;;;;;;;;;;5090829;28;21182;-85
2023/06/20 08:45:28;;;;;;;5.22;4.72;;;;;;;;;;5084243;28;20401;-85
2023/06/20 08:47:58;;;;;;;5.40;5.00;;;;;;;;;;5082594;28;20411;-85
2023/06/20 08:50:27;;;;;;;5.40;4.75;;;;;;;;;;5087961;28;20416;-85
2023/06/20 08:52:56;;;;;;;5.47;4.95;;;;;;;;;;5058396;28;20904;-85
2023/06/20 08:55:22;;;;;;;5.22;4.93;;;;;;;;;;5074001;28;20422;-85
2023/06/20 08:57:51;;;;;;;5.50;5.10;;;;;;;;;;5056215;28;20753;-85
2023/06/20 09:00:20;;;;;;;5.53;5.03;;;;;;;;;;5074300;28;20889;-85
2023/06/20 09:02:50;;;;;;;5.35;4.97;;;;;;;;;;5063097;28;20385;-86
2023/06/20 09:05:16;;;;;;;5.25;4.85;;;;;;;;;;5054252;28;20436;-85
2023/06/20 09:07:43;;;;;;;5.75;5.13;;;;;;;;;;5054021;28;20393;-85
2023/06/20 09:10:10;;;;;;;5.55;5.00;;;;;;;;;;5054116;28;20377;-85
2023/06/20 09:12:49;;;;;;;5.40;5.00;;;;;;;;;;5054027;28;20870;-86
2023/06/20 09:15:16;;;;;;;4.70;4.30;;;;;;;;;;5053888;28;20373;-86
2023/06/20 09:17:43;;;;;;;5.70;4.38;;;;;;;;;;5053929;28;20511;-86
2023/06/20 09:20:13;;;;;;;4.88;4.35;;;;;;;;;;5053259;28;20385;-86
2023/06/20 09:22:39;;;;;;;4.88;4.47;;;;;;;;;;5053802;28;20381;-86
2023/06/20 09:25:06;;;;;;;4.80;4.30;;;;;;;;;;5053751;28;20460;-86
2023/06/20 09:27:39;;;;;;;5.55;5.10;;;;;;;;;;5053740;28;20451;-86
2023/06/20 09:30:05;;;;;;;5.05;4.65;;;;;;;;;;5064437;28;20860;-86
2023/06/20 09:32:35;;;;;;;5.95;5.43;;;;;;;;;;5073560;28;20403;-86
2023/06/20 09:35:02;;;;;;;6.10;5.50;;;;;;;;;;5073244;28;20386;-86
2023/06/20 09:37:35;;;;;;;5.45;5.05;;;;;;;;;;5073558;28;20380;-86
2023/06/20 09:40:11;;;;;;;6.90;6.20;;;;;;;;;;5070150;28;20390;-87
2023/06/20 09:42:41;;;;;;;5.70;4.90;;;;;;;;;;5073415;28;20482;-86
2023/06/20 09:45:08;;;;;;;5.53;5.03;;;;;;;;;;5078265;28;20378;-87
2023/06/20 09:47:36;;;;;;;5.82;5.28;;;;;;;;;;5081889;28;20458;-87
2023/06/20 09:50:19;;;;;;;5.37;4.87;;;;;;;;;;5070261;28;20410;-86
2023/06/20 09:53:04;;;;;;;5.30;4.82;;;;;;;;;;5068549;28;20405;-86
2023/06/20 09:55:32;;;;;;;5.80;5.30;;;;;;;;;;5092356;28;20453;-87
2023/06/20 09:57:59;;;;;;;5.47;5.05;;;;;;;;;;5093407;28;20455;-87
2023/06/20 10:00:26;;;;;;;5.15;4.75;;;;;;;;;;5093291;28;20380;-87
2023/06/20 10:02:53;;;;;;;5.10;4.60;;;;;;;;;;5093328;28;20855;-86
2023/06/20 10:05:20;;;;;;;5.07;4.68;;;;;;;;;;5093339;28;20427;-86
2023/06/20 10:07:47;;;;;;;5.75;5.20;;;;;;;;;;5093160;28;20504;-87
2023/06/20 10:10:14;;;;;;;5.17;4.67;;;;;;;;;;5093070;28;20366;-86
2023/06/20 10:12:41;;;;;;;6.72;4.80;;;;;;;;;;5085752;28;20384;-86
2023/06/20 10:15:07;;;;;;;4.97;4.50;;;;;;;;;;5072941;28;20367;-86
2023/06/20 10:17:35;;;;;;;4.72;4.32;;;;;;;;;;5072773;28;20467;-85
2023/06/20 10:20:05;;;;;;;4.75;4.30;;;;;;;;;;5072671;28;20383;-86
2023/06/20 10:22:33;;;;;;;4.82;3.72;;;;;;;;;;5072721;28;20379;-86
2023/06/20 10:25:12;;;;;;;4.40;3.90;;;;;;;;;;5072721;28;20376;-85
2023/06/20 10:28:01;;;;;;;3.80;3.50;;;;;;;;;;5072443;28;20391;-86
2023/06/20 10:30:46;;;;;;;5.25;3.80;;;;;;;;;;5058532;28;20471;-86
2023/06/20 10:33:13;;;;;;;4.20;3.80;;;;;;;;;;5072433;28;20375;-86
2023/06/20 10:35:58;;;;;;;3.53;3.22;;;;;;;;;;5072503;28;20379;-86
2023/06/20 10:38:25;;;;;;;4.05;3.15;;;;;;;;;;5072231;28;20718;-86
2023/06/20 10:41:10;;;;;;;3.90;3.17;;;;;;;;;;5072264;28;20384;-86
2023/06/20 10:43:55;;;;;;;4.32;3.20;;;;;;;;;;5072334;28;20387;-86
2023/06/20 10:46:36;;;;;;;3.88;3.30;;;;;;;;;;5054541;28;20389;-86
2023/06/20 10:49:06;;;;;;;3.72;3.30;;;;;;;;;;5070135;28;20386;-86
2023/06/20 10:51:43;;;;;;;3.45;3.10;;;;;;;;;;5080306;28;20414;-85
2023/06/20 10:54:12;;;;;;;4.70;3.17;;;;;;;;;;5072185;28;20374;-86
2023/06/20 10:56:38;;;;;;;3.40;3.10;;;;;;;;;;5082868;28;20383;-86
2023/06/20 10:59:10;;;;;;;4.68;3.20;;;;;;;;;;5072170;28;20384;-85
2023/06/20 11:01:37;;;;;;;3.80;3.08;;;;;;;;;;5071875;28;20395;-86
2023/06/20 11:04:06;;;;;;;3.72;3.08;;;;;;;;;;5060771;28;20447;-86
2023/06/20 11:06:32;;;;;;;4.05;2.80;;;;;;;;;;5051827;28;20385;-85
2023/06/20 11:08:59;;;;;;;3.60;2.85;;;;;;;;;;5051910;28;20389;-87
2023/06/20 11:11:34;;;;;;;3.45;2.97;;;;;;;;;;5051732;28;20406;-86
2023/06/20 11:14:13;;;;;;;3.90;2.88;;;;;;;;;;5051876;28;20381;-86
2023/06/20 11:16:40;;;;;;;3.23;2.93;;;;;;;;;;5051587;28;20373;-86
2023/06/20 11:19:06;;;;;;;3.80;2.90;;;;;;;;;;5051775;28;20385;-86
2023/06/20 11:21:32;;;;;;;3.45;3.13;;;;;;;;;;5051621;28;20751;-88
2023/06/20 11:24:01;;;;;;;4.35;3.08;;;;;;;;;;5051706;28;20435;-87
2023/06/20 11:26:31;;;;;;;6.53;3.28;;;;;;;;;;5033579;28;20389;-86
2023/06/20 11:29:04;;;;;;;4.60;2.90;;;;;;;;;;5048560;28;20837;-87
2023/06/20 11:31:30;;;;;;;4.30;2.83;;;;;;;;;;5071484;28;20487;-87
2023/06/20 11:34:10;;;;;;;6.07;2.88;;;;;;;;;;5071502;28;20384;-87
2023/06/20 11:36:37;;;;;;;4.23;2.80;;;;;;;;;;5071393;28;20416;-87
2023/06/20 11:39:09;;;;;;;3.50;2.70;;;;;;;;;;5071260;28;20386;-87
2023/06/20 11:41:35;;;;;;;4.25;2.60;;;;;;;;;;5071059;28;20419;-87
2023/06/20 11:44:02;;;;;;;3.87;2.50;;;;;;;;;;5071314;28;20384;-87
2023/06/20 11:46:28;;;;;;;2.85;2.55;;;;;;;;;;5067972;28;20864;-88
2023/06/20 11:48:58;;;;;;;3.23;2.33;;;;;;;;;;5071162;28;20415;-86
2023/06/20 11:51:27;;;;;;;4.68;2.90;;;;;;;;;;5072452;28;20434;-87
2023/06/20 11:54:01;;;;;;;2.92;2.53;;;;;;;;;;5085049;28;20446;-87
2023/06/20 11:56:27;;;;;;;5.70;3.00;;;;;;;;;;5078957;28;20388;-87
2023/06/20 11:58:53;;;;;;;5.63;3.03;;;;;;;;;;5090756;28;20740;-87
2023/06/20 12:01:26;;;;;;;5.53;2.70;;;;;;;;;;5077280;28;20374;-86
2023/06/20 12:04:02;;;;;;;3.38;2.53;;;;;;;;;;5056174;28;20396;-88
2023/06/20 12:06:32;;;;;;;3.45;2.63;;;;;;;;;;5033293;28;20385;-87
2023/06/20 12:09:09;;;;;;;4.68;3.17;;;;;;;;;;5050985;28;20469;-87
2023/06/20 12:11:36;;;;;;;3.90;2.45;;;;;;;;;;5065744;28;20742;-87
2023/06/20 12:14:02;;;;;;;6.75;2.70;;;;;;;;;;5071041;28;20380;-87
2023/06/20 12:16:28;;;;;;;3.95;2.83;;;;;;;;;;5071005;28;20736;-86
2023/06/20 12:18:59;;;;;;;4.37;2.30;;;;;;;;;;5071293;28;20398;-87
2023/06/20 12:21:25;;;;;;;3.70;2.72;;;;;;;;;;5071274;28;20737;-87
2023/06/20 12:23:51;;;;;;;4.07;2.80;;;;;;;;;;5053438;28;20872;-87
2023/06/20 12:26:17;;;;;;;5.33;2.87;;;;;;;;;;5070846;28;20436;-87
2023/06/20 12:28:45;;;;;;;3.97;2.53;;;;;;;;;;5070908;28;20457;-87
2023/06/20 12:31:12;;;;;;;3.63;2.40;;;;;;;;;;5070793;28;20418;-88
2023/06/20 12:33:38;;;;;;;3.00;2.60;;;;;;;;;;5070984;28;20745;-86
2023/06/20 12:36:04;;;;;;;3.45;2.60;;;;;;;;;;5070806;28;20406;-87
2023/06/20 12:38:30;;;;;;;4.55;2.42;;;;;;;;;;5070842;28;20388;-87
2023/06/20 12:40:57;;;;;;;4.75;2.60;;;;;;;;;;5070759;28;20376;-87
2023/06/20 12:43:23;;;;;;;4.10;2.65;;;;;;;;;;5070825;28;20379;-85
2023/06/20 12:45:49;;;;;;;4.22;2.70;;;;;;;;;;5084026;22;20424;-79
2023/06/20 12:48:15;;;;;;;5.40;3.00;;;;;;;;;;5070515;28;20867;-80
2023/06/20 12:50:42;;;;;;;5.43;3.28;;;;;;;;;;5070507;28;20804;-80
2023/06/20 12:53:08;;;;;;;5.20;3.17;;;;;;;;;;5069742;28;20376;-79
2023/06/20 12:55:34;;;;;;;5.30;3.00;;;;;;;;;;5082591;28;20389;-79
2023/06/20 12:58:01;;;;;;;5.30;2.78;;;;;;;;;;5081510;28;20372;-79
2023/06/20 13:00:30;;;;;;;4.43;2.73;;;;;;;;;;5073930;28;20410;-79
2023/06/20 13:02:57;;;;;;;5.65;2.92;;;;;;;;;;5066864;28;20400;-79
2023/06/20 13:05:22;;;;;;;4.40;3.00;;;;;;;;;;5054021;28;20742;-80
2023/06/20 13:07:48;;;;;;;4.47;2.97;;;;;;;;;;5054256;28;20377;-80
2023/06/20 13:10:17;;;;;;;4.13;2.95;;;;;;;;;;5054075;28;20386;-79
2023/06/20 13:12:45;;;;;;;5.28;2.90;;;;;;;;;;5054115;28;20997;-79
2023/06/20 13:15:12;;;;;;;5.10;3.00;;;;;;;;;;5053928;28;20373;-80
2023/06/20 13:17:38;;;;;;;5.03;2.90;;;;;;;;;;5054059;28;20867;-79
2023/06/20 13:20:06;;;;;;;4.75;3.00;;;;;;;;;;5053902;28;20384;-80
2023/06/20 13:22:32;;;;;;;6.80;3.22;;;;;;;;;;5053953;28;21072;-79
2023/06/20 13:24:58;;;;;;;4.80;3.03;;;;;;;;;;5053723;28;20480;-80
2023/06/20 13:27:27;;;;;;;4.93;3.40;;;;;;;;;;5075088;28;20387;-79
2023/06/20 13:29:57;;;;;;;5.32;3.03;;;;;;;;;;5076292;28;20523;-79
2023/06/20 13:32:23;;;;;;;5.85;3.20;;;;;;;;;;5073717;28;20403;-79
2023/06/20 13:34:49;;;;;;;6.43;3.28;;;;;;;;;;5073584;28;20451;-79
2023/06/20 13:37:15;;;;;;;5.25;3.22;;;;;;;;;;5073561;28;20394;-79
2023/06/20 13:39:43;;;;;;;4.97;3.00;;;;;;;;;;5073669;28;20417;-79
2023/06/20 13:42:09;;;;;;;3.67;3.08;;;;;;;;;;5073644;28;20380;-80
2023/06/20 13:44:35;;;;;;;4.90;3.00;;;;;;;;;;5073231;28;20447;-79
2023/06/20 13:47:01;;;;;;;3.92;3.05;;;;;;;;;;5072868;28;20411;-79
2023/06/20 13:49:28;;;;;;;6.22;3.38;;;;;;;;;;5073426;28;20384;-79
2023/06/20 13:51:54;;;;;;;4.97;3.27;;;;;;;;;;5073341;28;20481;-79
2023/06/20 13:54:22;;;;;;;5.67;3.30;;;;;;;;;;5072284;28;20464;-79
2023/06/20 13:56:48;;;;;;;4.40;3.00;;;;;;;;;;5073098;28;20376;-79
2023/06/20 13:59:14;;;;;;;4.78;3.33;;;;;;;;;;5073030;28;20860;-79
2023/06/20 14:01:41;;;;;;;5.32;3.30;;;;;;;;;;5072917;28;20449;-80
2023/06/20 14:04:07;;;;;;;3.70;3.00;;;;;;;;;;5072815;28;20384;-79
2023/06/20 14:06:34;;;;;;;4.97;3.40;;;;;;;;;;5072703;28;20388;-80
2023/06/20 14:09:00;;;;;;;6.45;3.35;;;;;;;;;;5073139;28;20864;-79
2023/06/20 14:11:27;;;;;;;5.53;3.38;;;;;;;;;;5082972;28;20405;-79
2023/06/20 14:13:53;;;;;;;6.00;3.47;;;;;;;;;;5093165;28;20378;-79
2023/06/20 14:16:19;;;;;;;5.50;3.28;;;;;;;;;;5093098;28;20389;-79
2023/06/20 14:18:45;;;;;;;6.03;3.40;;;;;;;;;;5093094;28;20456;-80
2023/06/20 14:21:12;;;;;;;6.05;3.72;;;;;;;;;;5092972;28;20386;-80
2023/06/20 14:23:39;;;;;;;5.30;3.50;;;;;;;;;;5092798;28;20458;-80
2023/06/20 14:26:05;;;;;;;4.95;3.35;;;;;;;;;;5092949;28;20465;-80
2023/06/20 14:28:31;;;;;;;5.13;3.38;;;;;;;;;;5092940;28;20381;-80
2023/06/20 14:30:57;;;;;;;5.55;3.90;;;;;;;;;;5092715;28;20413;-80
2023/06/20 14:33:24;;;;;;;5.63;3.40;;;;;;;;;;5092658;28;20920;-80
2023/06/20 14:35:51;;;;;;;7.50;3.80;;;;;;;;;;5092597;28;20374;-80
2023/06/20 14:38:17;;;;;;;7.45;3.53;;;;;;;;;;5092755;28;20770;-80
2023/06/20 14:40:43;;;;;;;4.90;3.80;;;;;;;;;;5092644;28;20858;-80
2023/06/20 14:43:09;;;;;;;5.90;3.40;;;;;;;;;;5092581;28;20427;-80
2023/06/20 14:45:35;;;;;;;4.90;3.30;;;;;;;;;;5092383;28;20409;-80